Time;durP1;ratioP1;P1;durP2;ratioP2;P2;SDS_P1;SDS_P2;PMS_P1;PMS_P2;Temp;Humidity;BMP_temperature;BMP_pressure;BME280_temperature;BME280_humidity;BME280_pressure;Samples;Min_cycle;Max_cycle;Signal;HPM_P1;HPM_P2
2021/12/14 00:01:13;;;;;;;15.82;4.32;;;;;;;;;;5013801;28;20654;-71
2021/12/14 00:03:41;;;;;;;6.13;4.55;;;;;;;;;;5019926;28;20380;-71
2021/12/14 00:06:07;;;;;;;13.38;4.68;;;;;;;;;;5019814;28;20063;-72
2021/12/14 00:08:46;;;;;;;7.65;5.05;;;;;;;;;;5017462;28;20030;-70
2021/12/14 00:11:26;;;;;;;8.07;4.35;;;;;;;;;;5017075;28;20392;-70
2021/12/14 00:14:10;;;;;;;8.90;4.57;;;;;;;;;;5014495;28;20120;-70
2021/12/14 00:16:35;;;;;;;9.70;4.78;;;;;;;;;;5014726;28;20029;-71
2021/12/14 00:19:01;;;;;;;7.65;5.10;;;;;;;;;;5015957;28;20026;-70
2021/12/14 00:21:30;;;;;;;30.52;4.75;;;;;;;;;;5010739;28;20029;-71
2021/12/14 00:24:06;;;;;;;14.02;4.95;;;;;;;;;;5011284;28;20105;-71
2021/12/14 00:26:33;;;;;;;10.38;3.88;;;;;;;;;;5011722;28;20023;-71
2021/12/14 00:28:59;;;;;;;5.47;3.80;;;;;;;;;;5012667;28;20033;-70
2021/12/14 00:31:25;;;;;;;4.80;3.42;;;;;;;;;;5017552;28;20029;-71
2021/12/14 00:33:52;;;;;;;51.70;4.65;;;;;;;;;;5010484;28;20048;-70
2021/12/14 00:36:18;;;;;;;7.65;3.30;;;;;;;;;;5003213;28;20116;-71
2021/12/14 00:38:44;;;;;;;17.80;4.60;;;;;;;;;;5010054;28;20022;-70
2021/12/14 00:41:16;;;;;;;14.63;3.95;;;;;;;;;;5009258;28;20029;-68
2021/12/14 00:43:42;;;;;;;33.92;4.72;;;;;;;;;;5012295;28;20380;-70
2021/12/14 00:46:08;;;;;;;14.80;3.15;;;;;;;;;;5015695;28;20025;-71
2021/12/14 00:48:33;;;;;;;12.73;4.38;;;;;;;;;;5018329;28;20037;-71
2021/12/14 00:50:59;;;;;;;14.25;3.97;;;;;;;;;;5019304;28;20025;-71
2021/12/14 00:53:25;;;;;;;5.70;3.92;;;;;;;;;;5014953;28;20033;-71
2021/12/14 00:55:51;;;;;;;15.40;4.57;;;;;;;;;;5015683;28;20060;-71
2021/12/14 00:58:17;;;;;;;4.38;3.63;;;;;;;;;;5021759;28;20049;-71
2021/12/14 01:00:49;;;;;;;16.35;4.20;;;;;;;;;;5014433;28;20045;-70
2021/12/14 01:03:14;;;;;;;5.63;4.10;;;;;;;;;;5012072;28;20029;-71
2021/12/14 01:05:42;;;;;;;6.93;4.18;;;;;;;;;;5015164;28;20045;-71
2021/12/14 01:08:09;;;;;;;11.75;3.55;;;;;;;;;;5011704;28;20384;-70
2021/12/14 01:10:48;;;;;;;4.03;3.38;;;;;;;;;;5014440;28;20034;-69
2021/12/14 01:13:13;;;;;;;6.57;4.03;;;;;;;;;;5011338;28;20044;-70
2021/12/14 01:18:32;;;;;;;30.48;4.38;;;;;;;;;;5010861;28;20042;-71
2021/12/14 01:21:20;;;;;;;13.10;4.10;;;;;;;;;;5009760;28;20125;-70
2021/12/14 01:23:46;;;;;;;26.45;4.95;;;;;;;;;;5014777;28;20096;-70
2021/12/14 01:26:14;;;;;;;23.13;5.35;;;;;;;;;;5011853;28;20029;-72
2021/12/14 01:28:41;;;;;;;21.15;5.30;;;;;;;;;;5013670;28;20701;-72
2021/12/14 01:31:15;;;;;;;12.00;5.05;;;;;;;;;;5006996;28;20042;-71
2021/12/14 01:33:43;;;;;;;8.23;5.30;;;;;;;;;;5009495;28;20040;-72
2021/12/14 01:36:23;;;;;;;5.85;4.65;;;;;;;;;;5007685;28;20303;-72
2021/12/14 01:39:09;;;;;;;6.38;4.30;;;;;;;;;;5010082;28;20030;-71
2021/12/14 01:41:34;;;;;;;5.85;4.28;;;;;;;;;;5008266;28;20022;-71
2021/12/14 01:43:59;;;;;;;8.38;5.53;;;;;;;;;;5008338;28;20025;-72
2021/12/14 01:46:25;;;;;;;15.02;4.72;;;;;;;;;;5006297;28;20125;-71
2021/12/14 01:48:50;;;;;;;21.10;5.32;;;;;;;;;;5006644;28;20052;-72
2021/12/14 01:51:15;;;;;;;37.88;5.40;;;;;;;;;;5006222;28;20021;-71
2021/12/14 01:53:42;;;;;;;11.27;4.43;;;;;;;;;;5006569;28;20040;-71
2021/12/14 01:56:11;;;;;;;22.65;6.07;;;;;;;;;;5005227;28;20153;-72
2021/12/14 01:58:53;;;;;;;44.67;5.93;;;;;;;;;;5004531;28;20026;-71
2021/12/14 02:01:24;;;;;;;24.45;4.65;;;;;;;;;;5003493;28;20026;-71
2021/12/14 02:03:55;;;;;;;6.22;4.82;;;;;;;;;;5008257;28;20033;-72
2021/12/14 02:06:25;;;;;;;38.88;5.13;;;;;;;;;;5005051;28;20673;-72
2021/12/14 02:09:00;;;;;;;87.22;6.70;;;;;;;;;;5005987;28;20057;-72
2021/12/14 02:11:30;;;;;;;7.50;5.00;;;;;;;;;;5011097;28;20030;-71
2021/12/14 02:13:55;;;;;;;26.58;4.80;;;;;;;;;;5006706;28;21432;-72
2021/12/14 02:16:21;;;;;;;11.30;4.70;;;;;;;;;;5009122;28;20048;-71
2021/12/14 02:18:49;;;;;;;46.20;5.57;;;;;;;;;;5007914;28;20029;-72
2021/12/14 02:21:14;;;;;;;9.52;4.78;;;;;;;;;;5004952;28;20032;-72
2021/12/14 02:23:43;;;;;;;6.07;4.50;;;;;;;;;;5002146;28;20022;-71
2021/12/14 02:26:11;;;;;;;21.88;5.20;;;;;;;;;;5004661;28;20173;-72
2021/12/14 02:28:36;;;;;;;13.00;4.78;;;;;;;;;;5006985;28;20029;-71
2021/12/14 02:31:03;;;;;;;32.65;5.22;;;;;;;;;;5006300;28;20032;-72
2021/12/14 02:33:32;;;;;;;8.85;3.97;;;;;;;;;;5008618;28;20381;-70
2021/12/14 02:35:58;;;;;;;12.77;4.68;;;;;;;;;;5007256;28;20052;-72
2021/12/14 02:38:23;;;;;;;28.05;5.40;;;;;;;;;;5010256;28;20099;-72
2021/12/14 02:40:58;;;;;;;16.95;5.95;;;;;;;;;;5006256;28;20025;-71
2021/12/14 02:43:25;;;;;;;12.57;7.68;;;;;;;;;;5006350;28;20120;-72
2021/12/14 02:45:51;;;;;;;17.13;9.75;;;;;;;;;;5006356;28;20030;-71
2021/12/14 02:48:17;;;;;;;14.95;8.32;;;;;;;;;;5024290;28;20030;-71
2021/12/14 02:50:43;;;;;;;17.20;9.63;;;;;;;;;;5007262;28;20558;-72
2021/12/14 02:53:10;;;;;;;16.92;9.57;;;;;;;;;;5009874;28;20024;-72
2021/12/14 02:55:35;;;;;;;19.88;10.65;;;;;;;;;;5009298;28;20040;-71
2021/12/14 02:58:05;;;;;;;36.85;18.30;;;;;;;;;;5006401;28;20025;-72
2021/12/14 03:00:33;;;;;;;32.58;15.98;;;;;;;;;;5009461;28;20030;-71
2021/12/14 03:02:59;;;;;;;28.80;14.48;;;;;;;;;;5006838;28;20528;-72
2021/12/14 03:05:28;;;;;;;38.78;17.95;;;;;;;;;;5006598;28;20026;-71
2021/12/14 03:08:20;;;;;;;34.03;15.60;;;;;;;;;;5008959;28;20125;-72
2021/12/14 03:11:00;;;;;;;28.05;14.68;;;;;;;;;;5005881;28;20133;-71
2021/12/14 03:13:32;;;;;;;12.75;7.18;;;;;;;;;;5005284;28;20500;-72
2021/12/14 03:16:01;;;;;;;11.63;6.85;;;;;;;;;;5007164;28;20384;-71
2021/12/14 03:18:32;;;;;;;9.50;5.95;;;;;;;;;;4993260;28;20472;-72
2021/12/14 03:20:58;;;;;;;7.50;5.13;;;;;;;;;;5009041;28;20919;-70
2021/12/14 03:23:29;;;;;;;9.32;5.78;;;;;;;;;;5006215;28;20024;-71
2021/12/14 03:25:56;;;;;;;8.52;5.63;;;;;;;;;;5008116;28;20030;-71
2021/12/14 03:28:22;;;;;;;8.13;5.25;;;;;;;;;;5005224;28;20030;-71
2021/12/14 03:30:47;;;;;;;6.15;4.68;;;;;;;;;;5006482;28;20345;-70
2021/12/14 03:33:18;;;;;;;6.32;4.75;;;;;;;;;;5008622;28;20392;-71
2021/12/14 03:35:49;;;;;;;7.63;4.65;;;;;;;;;;5005708;28;20036;-70
2021/12/14 03:38:21;;;;;;;6.95;4.57;;;;;;;;;;5005347;28;20033;-69
2021/12/14 03:41:13;;;;;;;5.68;4.55;;;;;;;;;;5010582;28;20037;-71
2021/12/14 03:43:44;;;;;;;6.25;4.30;;;;;;;;;;5005308;28;20088;-71
2021/12/14 03:46:09;;;;;;;5.65;4.03;;;;;;;;;;5007784;28;20117;-71
2021/12/14 03:48:35;;;;;;;6.30;4.60;;;;;;;;;;5004124;28;20500;-71
2021/12/14 03:51:01;;;;;;;7.00;4.93;;;;;;;;;;5008008;28;20029;-71
2021/12/14 03:53:26;;;;;;;8.45;4.93;;;;;;;;;;5001602;28;20034;-71
2021/12/14 03:55:56;;;;;;;5.80;4.72;;;;;;;;;;5003562;28;20034;-71
2021/12/14 03:58:24;;;;;;;21.08;5.30;;;;;;;;;;5001500;28;20029;-71
2021/12/14 04:00:57;;;;;;;9.77;4.43;;;;;;;;;;5004021;28;20030;-71
2021/12/14 04:03:24;;;;;;;7.55;4.68;;;;;;;;;;5018138;22;20053;-67
2021/12/14 04:05:49;;;;;;;7.50;5.05;;;;;;;;;;4971723;28;20449;-66
2021/12/14 04:08:15;;;;;;;7.47;5.05;;;;;;;;;;4956757;28;20023;-66
2021/12/14 04:10:41;;;;;;;63.83;5.72;;;;;;;;;;4957627;28;20035;-68
2021/12/14 04:13:07;;;;;;;9.85;5.93;;;;;;;;;;4955062;28;20460;-68
2021/12/14 04:15:33;;;;;;;14.57;6.20;;;;;;;;;;4956772;28;20131;-68
2021/12/14 04:17:58;;;;;;;7.13;5.22;;;;;;;;;;4942263;28;20039;-68
2021/12/14 04:20:31;;;;;;;23.25;5.82;;;;;;;;;;4942649;29;20023;-68
2021/12/14 04:22:56;;;;;;;8.93;6.13;;;;;;;;;;4943602;29;20035;-68
2021/12/14 04:25:24;;;;;;;8.73;5.80;;;;;;;;;;4958085;28;20559;-67
2021/12/14 04:27:51;;;;;;;13.27;5.50;;;;;;;;;;4940852;29;20034;-68
2021/12/14 04:30:17;;;;;;;6.53;4.82;;;;;;;;;;4943759;28;20106;-68
2021/12/14 04:32:49;;;;;;;7.22;5.00;;;;;;;;;;4943918;28;20485;-69
2021/12/14 04:35:15;;;;;;;6.57;5.05;;;;;;;;;;4942486;28;20023;-68
2021/12/14 04:37:42;;;;;;;5.65;4.75;;;;;;;;;;4942304;28;20047;-68
2021/12/14 04:40:23;;;;;;;6.25;4.47;;;;;;;;;;4941363;28;20034;-68
2021/12/14 04:53:50;;;;;;;11.82;5.15;;;;;;;;;;4952528;29;20186;-71
2021/12/14 04:56:26;;;;;;;6.70;4.93;;;;;;;;;;4952660;28;20023;-70
2021/12/14 04:59:04;;;;;;;9.35;5.25;;;;;;;;;;4956230;28;20030;-71
2021/12/14 05:01:32;;;;;;;7.72;5.45;;;;;;;;;;4944961;28;20454;-70
2021/12/14 05:03:59;;;;;;;7.72;5.45;;;;;;;;;;4963797;28;20016;-70
2021/12/14 05:06:32;;;;;;;7.65;5.53;;;;;;;;;;4966770;28;20027;-70
2021/12/14 05:11:53;;;;;;;8.93;5.57;;;;;;;;;;4950864;29;20074;-70
2021/12/14 05:14:18;;;;;;;7.35;4.95;;;;;;;;;;4965115;28;20057;-70
2021/12/14 05:16:43;;;;;;;5.97;4.85;;;;;;;;;;4964371;28;20055;-70
2021/12/14 05:19:10;;;;;;;6.47;4.50;;;;;;;;;;4965853;28;20528;-70
2021/12/14 05:21:44;;;;;;;6.15;4.72;;;;;;;;;;4957075;28;20046;-70
2021/12/14 05:24:10;;;;;;;6.28;4.40;;;;;;;;;;4953968;28;20097;-69
2021/12/14 05:26:36;;;;;;;6.85;4.40;;;;;;;;;;4950001;28;20568;-70
2021/12/14 05:29:02;;;;;;;6.53;4.35;;;;;;;;;;4948914;29;20035;-70
2021/12/14 05:31:28;;;;;;;7.22;4.90;;;;;;;;;;4949012;28;20031;-71
2021/12/14 05:33:53;;;;;;;7.85;5.00;;;;;;;;;;4958615;28;20023;-70
2021/12/14 05:36:19;;;;;;;6.63;4.53;;;;;;;;;;4952647;28;20042;-70
2021/12/14 05:44:00;;;;;;;5.85;3.67;;;;;;;;;;4952602;28;20454;-71
2021/12/14 05:46:26;;;;;;;5.38;3.63;;;;;;;;;;4966908;28;20110;-70
2021/12/14 05:48:58;;;;;;;5.03;3.97;;;;;;;;;;4952124;28;20035;-70
2021/12/14 05:51:23;;;;;;;6.97;4.47;;;;;;;;;;4950484;28;20039;-70
2021/12/14 05:53:49;;;;;;;6.50;3.72;;;;;;;;;;4949533;29;20512;-70
2021/12/14 05:56:20;;;;;;;6.75;4.35;;;;;;;;;;4952060;29;20466;-71
2021/12/14 05:58:45;;;;;;;6.65;4.38;;;;;;;;;;4950504;28;20073;-70
2021/12/14 06:01:12;;;;;;;6.40;4.43;;;;;;;;;;4960579;28;20501;-70
2021/12/14 06:04:05;;;;;;;5.47;3.97;;;;;;;;;;4963726;28;20038;-71
2021/12/14 06:06:33;;;;;;;5.53;3.88;;;;;;;;;;4955133;28;20043;-70
2021/12/14 06:09:11;;;;;;;7.53;4.30;;;;;;;;;;4969338;28;20029;-70
2021/12/14 06:11:37;;;;;;;8.07;5.00;;;;;;;;;;4954687;28;20019;-70
2021/12/14 06:14:03;;;;;;;9.55;4.82;;;;;;;;;;4953936;28;20030;-70
2021/12/14 06:16:30;;;;;;;8.52;5.03;;;;;;;;;;4970957;28;20078;-70
2021/12/14 06:19:12;;;;;;;4.80;4.22;;;;;;;;;;4955549;28;20102;-71
2021/12/14 06:21:37;;;;;;;6.85;4.35;;;;;;;;;;4954468;28;20047;-70
2021/12/14 06:24:04;;;;;;;6.90;4.25;;;;;;;;;;4943147;28;20059;-70
2021/12/14 06:26:35;;;;;;;6.03;4.63;;;;;;;;;;4949167;29;20023;-70
2021/12/14 06:29:15;;;;;;;5.53;4.03;;;;;;;;;;4968490;28;20078;-70
2021/12/14 06:31:41;;;;;;;7.35;4.63;;;;;;;;;;4968211;28;20047;-71
2021/12/14 06:34:28;;;;;;;4.65;3.92;;;;;;;;;;4953839;28;20038;-70
2021/12/14 06:37:20;;;;;;;5.13;3.80;;;;;;;;;;4954716;28;20026;-70
2021/12/14 06:40:16;;;;;;;7.97;4.40;;;;;;;;;;4951037;29;20426;-70
2021/12/14 06:42:47;;;;;;;5.47;3.88;;;;;;;;;;4951006;29;20035;-70
2021/12/14 06:45:16;;;;;;;5.68;3.72;;;;;;;;;;4952972;28;20038;-70
2021/12/14 06:47:45;;;;;;;6.45;4.20;;;;;;;;;;4963650;28;20034;-70
2021/12/14 06:50:15;;;;;;;6.82;4.05;;;;;;;;;;4954669;28;20114;-71
2021/12/14 06:52:41;;;;;;;4.20;3.42;;;;;;;;;;4952006;29;20517;-71
2021/12/14 06:55:07;;;;;;;6.32;4.03;;;;;;;;;;4958416;28;20324;-71
2021/12/14 06:57:32;;;;;;;5.82;4.18;;;;;;;;;;4953078;28;20054;-71
2021/12/14 06:59:58;;;;;;;7.78;4.22;;;;;;;;;;4954048;28;20102;-70
2021/12/14 07:02:23;;;;;;;6.97;4.72;;;;;;;;;;4949940;28;20505;-70
2021/12/14 07:04:51;;;;;;;11.35;5.05;;;;;;;;;;4947307;29;20098;-70
2021/12/14 07:07:23;;;;;;;11.98;4.75;;;;;;;;;;4954111;28;20027;-70
2021/12/14 07:09:51;;;;;;;6.85;4.55;;;;;;;;;;4954303;28;20441;-71
2021/12/14 07:12:21;;;;;;;7.00;4.55;;;;;;;;;;4953188;29;20497;-70
2021/12/14 07:14:49;;;;;;;9.02;5.30;;;;;;;;;;4954138;28;20548;-70
2021/12/14 07:17:20;;;;;;;9.63;5.35;;;;;;;;;;4954532;29;20118;-70
2021/12/14 07:20:09;;;;;;;7.13;4.55;;;;;;;;;;4969414;28;20023;-70
2021/12/14 07:22:49;;;;;;;7.97;4.38;;;;;;;;;;4965716;28;20035;-70
2021/12/14 07:25:29;;;;;;;10.88;5.22;;;;;;;;;;4954148;28;20512;-70
2021/12/14 07:27:56;;;;;;;9.68;5.00;;;;;;;;;;4945389;29;20096;-70
2021/12/14 07:30:22;;;;;;;6.57;4.20;;;;;;;;;;4953281;28;20090;-70
2021/12/14 07:33:10;;;;;;;5.63;4.20;;;;;;;;;;4953277;29;20108;-69
2021/12/14 07:35:46;;;;;;;5.95;3.88;;;;;;;;;;4944523;29;20125;-70
2021/12/14 07:38:14;;;;;;;6.15;3.85;;;;;;;;;;4952868;28;20042;-70
2021/12/14 07:40:40;;;;;;;8.40;3.83;;;;;;;;;;4953767;29;20541;-70
2021/12/14 07:43:14;;;;;;;5.30;4.10;;;;;;;;;;4963967;28;20030;-70
2021/12/14 07:45:41;;;;;;;8.75;4.40;;;;;;;;;;4934070;29;20042;-70
2021/12/14 07:48:07;;;;;;;6.65;4.20;;;;;;;;;;4954046;28;20113;-70
2021/12/14 07:50:45;;;;;;;9.02;4.50;;;;;;;;;;4955374;28;20110;-70
2021/12/14 07:53:11;;;;;;;5.30;3.83;;;;;;;;;;4949788;28;20031;-69
2021/12/14 07:55:38;;;;;;;7.43;4.43;;;;;;;;;;4950827;28;20034;-70
2021/12/14 07:58:05;;;;;;;7.28;4.78;;;;;;;;;;4951089;28;20474;-69
2021/12/14 08:00:35;;;;;;;9.20;4.22;;;;;;;;;;4951207;28;20062;-69
2021/12/14 08:03:01;;;;;;;8.20;4.72;;;;;;;;;;4952547;28;20148;-70
2021/12/14 08:05:31;;;;;;;5.35;4.18;;;;;;;;;;4946820;28;20450;-70
2021/12/14 08:08:07;;;;;;;6.55;4.30;;;;;;;;;;4962944;28;20130;-70
2021/12/14 08:10:37;;;;;;;6.32;4.53;;;;;;;;;;4958067;28;20031;-70
2021/12/14 08:13:02;;;;;;;8.20;4.60;;;;;;;;;;4951437;29;20342;-70
2021/12/14 08:15:31;;;;;;;5.25;3.50;;;;;;;;;;4950521;29;20097;-70
2021/12/14 08:18:05;;;;;;;5.65;3.58;;;;;;;;;;4961004;28;20028;-70
2021/12/14 08:20:31;;;;;;;6.93;3.80;;;;;;;;;;4947241;29;20035;-69
2021/12/14 08:22:58;;;;;;;4.47;3.00;;;;;;;;;;4946700;28;20280;-70
2021/12/14 08:25:25;;;;;;;5.05;3.20;;;;;;;;;;4951271;29;20038;-69
2021/12/14 08:28:05;;;;;;;3.63;3.22;;;;;;;;;;4956102;28;20058;-70
2021/12/14 08:30:31;;;;;;;3.67;2.97;;;;;;;;;;4950704;28;20036;-70
2021/12/14 08:32:56;;;;;;;3.38;2.85;;;;;;;;;;4951716;28;20028;-70
2021/12/14 08:35:22;;;;;;;5.78;3.03;;;;;;;;;;4951669;28;20031;-70
2021/12/14 08:37:52;;;;;;;3.78;3.25;;;;;;;;;;4950538;29;20114;-69
2021/12/14 08:40:20;;;;;;;5.55;4.20;;;;;;;;;;4948686;29;20465;-70
2021/12/14 08:43:02;;;;;;;8.52;4.38;;;;;;;;;;4930357;29;20031;-70
2021/12/14 08:45:39;;;;;;;7.85;4.43;;;;;;;;;;4948089;29;20046;-69
2021/12/14 08:48:16;;;;;;;5.68;3.67;;;;;;;;;;4951758;28;20417;-69
2021/12/14 08:50:53;;;;;;;3.30;2.97;;;;;;;;;;4955987;28;20529;-70
2021/12/14 08:53:18;;;;;;;2.83;2.45;;;;;;;;;;4951783;28;20106;-69
2021/12/14 08:55:45;;;;;;;2.50;2.30;;;;;;;;;;4951676;28;20130;-69
2021/12/14 08:58:11;;;;;;;2.78;2.10;;;;;;;;;;4950210;29;20042;-69
2021/12/14 09:00:45;;;;;;;3.13;1.92;;;;;;;;;;4950441;28;20502;-69
2021/12/14 09:03:13;;;;;;;2.20;1.98;;;;;;;;;;4949850;29;20031;-69
2021/12/14 09:05:46;;;;;;;3.25;2.17;;;;;;;;;;4959638;28;20490;-69
2021/12/14 09:08:12;;;;;;;3.92;2.30;;;;;;;;;;4951374;28;20386;-69
2021/12/14 09:10:38;;;;;;;3.95;3.25;;;;;;;;;;4951550;28;20039;-69
2021/12/14 09:13:06;;;;;;;3.75;2.67;;;;;;;;;;4951253;28;20035;-69
2021/12/14 09:15:59;;;;;;;2.22;2.03;;;;;;;;;;4951263;28;20023;-70
2021/12/14 09:18:27;;;;;;;2.33;2.08;;;;;;;;;;4949025;29;20476;-69
2021/12/14 09:20:58;;;;;;;3.72;2.10;;;;;;;;;;4965532;28;20026;-69
2021/12/14 09:23:34;;;;;;;2.13;1.60;;;;;;;;;;4948742;29;20035;-69
2021/12/14 09:26:03;;;;;;;2.65;1.80;;;;;;;;;;4949987;29;20501;-70
2021/12/14 09:28:28;;;;;;;2.22;1.85;;;;;;;;;;4950672;28;20031;-69
2021/12/14 09:30:56;;;;;;;2.08;1.88;;;;;;;;;;4951497;28;20553;-69
2021/12/14 09:33:23;;;;;;;1.52;1.42;;;;;;;;;;4959348;28;20032;-70
2021/12/14 09:35:49;;;;;;;3.75;1.60;;;;;;;;;;4960486;28;20198;-69
2021/12/14 09:38:17;;;;;;;2.15;1.50;;;;;;;;;;4939402;29;20031;-70
2021/12/14 09:40:51;;;;;;;1.60;1.50;;;;;;;;;;4951201;28;20028;-69
2021/12/14 09:43:18;;;;;;;1.63;1.30;;;;;;;;;;4950182;28;20035;-69
2021/12/14 09:45:47;;;;;;;1.33;1.23;;;;;;;;;;4950955;28;20481;-69
2021/12/14 09:48:15;;;;;;;2.20;1.40;;;;;;;;;;4949397;29;20023;-69
2021/12/14 09:50:42;;;;;;;1.40;1.30;;;;;;;;;;4959416;28;20070;-69
2021/12/14 09:53:10;;;;;;;1.48;1.17;;;;;;;;;;4950881;28;20409;-69
2021/12/14 09:55:36;;;;;;;1.20;1.17;;;;;;;;;;4950444;28;20027;-70
2021/12/14 09:58:06;;;;;;;1.38;1.27;;;;;;;;;;4947745;28;20027;-69
2021/12/14 10:00:38;;;;;;;2.17;1.40;;;;;;;;;;4949090;28;20059;-69
2021/12/14 10:03:04;;;;;;;2.90;1.52;;;;;;;;;;4949193;29;20031;-68
2021/12/14 10:05:39;;;;;;;2.10;1.25;;;;;;;;;;4949569;28;20039;-71
2021/12/14 10:08:14;;;;;;;1.73;1.48;;;;;;;;;;4940858;28;20031;-71
2021/12/14 10:10:41;;;;;;;1.58;1.48;;;;;;;;;;4954652;28;20510;-71
2021/12/14 10:13:06;;;;;;;1.77;1.33;;;;;;;;;;4956874;28;20033;-71
2021/12/14 10:15:46;;;;;;;1.88;1.48;;;;;;;;;;4960741;28;20503;-71
2021/12/14 10:18:15;;;;;;;1.77;1.67;;;;;;;;;;4955863;28;20615;-71
2021/12/14 10:20:45;;;;;;;1.98;1.58;;;;;;;;;;4941631;28;20027;-71
2021/12/14 10:23:12;;;;;;;4.05;2.03;;;;;;;;;;4941660;28;20356;-71
2021/12/14 10:25:38;;;;;;;1.88;1.60;;;;;;;;;;4956120;28;20062;-71
2021/12/14 10:28:04;;;;;;;1.95;1.70;;;;;;;;;;4939059;28;20460;-71
2021/12/14 10:30:36;;;;;;;1.52;1.35;;;;;;;;;;4939926;28;20044;-71
2021/12/14 10:33:01;;;;;;;1.50;1.40;;;;;;;;;;4942438;28;20425;-71
2021/12/14 10:35:33;;;;;;;1.98;1.50;;;;;;;;;;4939052;28;20031;-71
2021/12/14 10:38:11;;;;;;;1.90;1.70;;;;;;;;;;4942661;28;20635;-71
2021/12/14 10:43:34;;;;;;;1.58;1.38;;;;;;;;;;4900885;29;20059;-71
2021/12/14 10:46:05;;;;;;;1.70;1.60;;;;;;;;;;4957629;28;20039;-71
2021/12/14 10:48:33;;;;;;;3.40;2.33;;;;;;;;;;4959858;28;20486;-71
2021/12/14 10:51:00;;;;;;;4.55;3.95;;;;;;;;;;4944240;28;20032;-71
2021/12/14 10:53:26;;;;;;;4.32;3.40;;;;;;;;;;4944079;28;20030;-71
2021/12/14 10:56:04;;;;;;;3.35;2.97;;;;;;;;;;4948622;28;20379;-71
2021/12/14 10:58:30;;;;;;;4.30;2.97;;;;;;;;;;4943161;28;20043;-71
2021/12/14 11:01:07;;;;;;;5.30;2.67;;;;;;;;;;4942558;28;20046;-71
2021/12/14 11:03:37;;;;;;;3.22;2.80;;;;;;;;;;4964439;28;20418;-71
2021/12/14 11:06:06;;;;;;;6.10;3.40;;;;;;;;;;4960451;28;20039;-71
2021/12/14 11:11:18;;;;;;;3.33;3.03;;;;;;;;;;4957184;28;20043;-71
2021/12/14 11:13:46;;;;;;;4.55;3.60;;;;;;;;;;4958961;28;20023;-71
2021/12/14 11:16:18;;;;;;;4.50;2.95;;;;;;;;;;4938575;28;20031;-71
2021/12/14 11:18:45;;;;;;;5.45;2.95;;;;;;;;;;4959049;28;20039;-71
2021/12/14 11:21:14;;;;;;;6.38;3.60;;;;;;;;;;4947594;28;20034;-71
2021/12/14 11:23:42;;;;;;;4.22;3.47;;;;;;;;;;4943928;28;20367;-71
2021/12/14 11:26:07;;;;;;;4.10;3.70;;;;;;;;;;4957791;28;20087;-71
2021/12/14 11:28:35;;;;;;;5.97;3.90;;;;;;;;;;4945059;28;20122;-71
2021/12/14 11:31:26;;;;;;;3.90;3.50;;;;;;;;;;4957802;28;20047;-71
2021/12/14 11:33:52;;;;;;;5.13;3.20;;;;;;;;;;4943985;28;20486;-71
2021/12/14 11:36:24;;;;;;;3.20;2.90;;;;;;;;;;4944330;28;20110;-71
2021/12/14 11:38:53;;;;;;;3.85;2.92;;;;;;;;;;4959383;28;20030;-71
2021/12/14 11:41:38;;;;;;;4.45;3.50;;;;;;;;;;4942789;28;20023;-71
2021/12/14 11:44:15;;;;;;;4.78;3.72;;;;;;;;;;4944067;28;20031;-71
2021/12/14 11:46:51;;;;;;;5.75;4.05;;;;;;;;;;4943856;28;20074;-71
2021/12/14 11:49:16;;;;;;;8.23;5.25;;;;;;;;;;4944782;28;20035;-71
2021/12/14 11:51:42;;;;;;;4.53;3.95;;;;;;;;;;4958632;28;20053;-71
2021/12/14 11:54:07;;;;;;;5.63;3.10;;;;;;;;;;4944219;28;20497;-71
2021/12/14 11:56:33;;;;;;;3.92;3.25;;;;;;;;;;4942817;28;20067;-71
2021/12/14 11:59:01;;;;;;;4.07;2.97;;;;;;;;;;4944084;28;20027;-71
2021/12/14 12:01:45;;;;;;;5.13;3.22;;;;;;;;;;4957221;28;20035;-71
2021/12/14 12:04:20;;;;;;;5.25;3.50;;;;;;;;;;4943902;28;20528;-71
2021/12/14 12:09:42;;;;;;;4.85;3.75;;;;;;;;;;4944966;28;20127;-71
2021/12/14 12:12:39;;;;;;;4.38;3.63;;;;;;;;;;4944034;28;20034;-71
2021/12/14 12:15:09;;;;;;;5.47;2.90;;;;;;;;;;4942359;28;20049;-71
2021/12/14 12:17:40;;;;;;;2.72;2.22;;;;;;;;;;4944216;28;20028;-71
2021/12/14 12:20:30;;;;;;;3.25;2.75;;;;;;;;;;4955485;28;20022;-71
2021/12/14 12:23:07;;;;;;;5.95;5.00;;;;;;;;;;4956150;28;20180;-71
2021/12/14 12:25:35;;;;;;;9.85;6.28;;;;;;;;;;4958480;28;20035;-71
2021/12/14 12:28:05;;;;;;;10.25;6.22;;;;;;;;;;4944236;28;20035;-70
2021/12/14 12:30:41;;;;;;;6.47;4.90;;;;;;;;;;4946334;28;20042;-71
2021/12/14 12:33:20;;;;;;;4.88;3.90;;;;;;;;;;4945971;28;20054;-71
2021/12/14 12:36:01;;;;;;;6.10;3.95;;;;;;;;;;4943048;28;20389;-70
2021/12/14 12:38:47;;;;;;;6.53;3.50;;;;;;;;;;4942987;28;20082;-70
2021/12/14 12:41:42;;;;;;;2.88;2.63;;;;;;;;;;4943164;28;20106;-70
2021/12/14 12:44:36;;;;;;;2.60;2.40;;;;;;;;;;4957454;28;20042;-71
2021/12/14 12:47:05;;;;;;;4.22;2.40;;;;;;;;;;4943286;28;20050;-70
2021/12/14 12:49:32;;;;;;;3.35;2.80;;;;;;;;;;4942579;28;20027;-70
2021/12/14 12:52:19;;;;;;;2.72;2.33;;;;;;;;;;4940437;28;20468;-70
2021/12/14 12:54:46;;;;;;;3.70;2.30;;;;;;;;;;4943241;29;20502;-71
2021/12/14 12:57:41;;;;;;;3.10;2.17;;;;;;;;;;4957066;28;20042;-71
2021/12/14 13:00:23;;;;;;;3.30;2.60;;;;;;;;;;4941371;28;20023;-71
2021/12/14 13:02:50;;;;;;;2.60;2.40;;;;;;;;;;4958104;28;20039;-71
2021/12/14 13:05:39;;;;;;;2.70;2.50;;;;;;;;;;4957410;28;20031;-71
2021/12/14 13:08:06;;;;;;;2.75;2.45;;;;;;;;;;4946179;28;20091;-71
2021/12/14 13:10:39;;;;;;;3.55;2.45;;;;;;;;;;4951640;28;20027;-71
2021/12/14 13:13:25;;;;;;;3.03;2.58;;;;;;;;;;4955077;28;20042;-71
2021/12/14 13:16:10;;;;;;;3.15;2.60;;;;;;;;;;4960096;28;20035;-71
2021/12/14 13:18:39;;;;;;;3.38;2.55;;;;;;;;;;4954620;28;20027;-71
2021/12/14 13:21:30;;;;;;;2.20;2.00;;;;;;;;;;4940121;28;20031;-71
2021/12/14 13:24:03;;;;;;;3.65;2.50;;;;;;;;;;4939399;28;20038;-71
2021/12/14 13:26:34;;;;;;;2.50;2.30;;;;;;;;;;4955389;28;20549;-71
2021/12/14 13:29:04;;;;;;;3.88;2.50;;;;;;;;;;4942105;28;20682;-71
2021/12/14 13:31:37;;;;;;;2.50;2.20;;;;;;;;;;4938286;28;20038;-71
2021/12/14 13:34:06;;;;;;;2.35;2.15;;;;;;;;;;4923568;28;20495;-71
2021/12/14 13:36:31;;;;;;;2.25;2.00;;;;;;;;;;4940745;28;20035;-71
2021/12/14 13:38:56;;;;;;;2.17;1.80;;;;;;;;;;4942520;28;20486;-71
2021/12/14 13:41:40;;;;;;;4.22;2.53;;;;;;;;;;4942423;28;20031;-71
2021/12/14 13:44:06;;;;;;;2.10;1.90;;;;;;;;;;4957411;28;20053;-71
2021/12/14 13:46:31;;;;;;;2.05;1.85;;;;;;;;;;4940195;28;20043;-71
2021/12/14 13:48:56;;;;;;;2.33;2.13;;;;;;;;;;4954345;28;20031;-71
2021/12/14 13:51:23;;;;;;;2.30;2.10;;;;;;;;;;4939968;28;20067;-71
2021/12/14 13:53:48;;;;;;;2.13;1.92;;;;;;;;;;4939305;28;20115;-71
2021/12/14 13:56:18;;;;;;;2.42;1.95;;;;;;;;;;4934865;28;20397;-71
2021/12/14 13:58:43;;;;;;;2.20;2.00;;;;;;;;;;4950119;28;20055;-71
2021/12/14 14:01:12;;;;;;;1.70;1.60;;;;;;;;;;4939861;28;20142;-71
2021/12/14 14:03:40;;;;;;;2.08;1.88;;;;;;;;;;4939136;28;20642;-71
2021/12/14 14:06:08;;;;;;;2.25;2.05;;;;;;;;;;4955710;28;20024;-71
2021/12/14 14:08:43;;;;;;;2.35;2.15;;;;;;;;;;4941874;29;20036;-71
2021/12/14 14:11:25;;;;;;;3.08;2.20;;;;;;;;;;4945980;29;20035;-71
2021/12/14 14:13:51;;;;;;;2.28;2.08;;;;;;;;;;4942745;29;20243;-71
2021/12/14 14:16:17;;;;;;;2.40;2.20;;;;;;;;;;4956798;28;20103;-71
2021/12/14 14:18:45;;;;;;;2.10;1.90;;;;;;;;;;4938758;28;20027;-71
2021/12/14 14:21:11;;;;;;;3.22;2.40;;;;;;;;;;4941878;28;20039;-71
2021/12/14 14:23:42;;;;;;;2.08;1.90;;;;;;;;;;4938729;28;20628;-71
2021/12/14 14:26:21;;;;;;;2.17;2.00;;;;;;;;;;4944337;28;20046;-71
2021/12/14 14:28:47;;;;;;;2.08;1.88;;;;;;;;;;4960529;28;20039;-71
2021/12/14 14:31:41;;;;;;;2.28;2.08;;;;;;;;;;4942288;28;20122;-71
2021/12/14 14:34:30;;;;;;;2.37;2.00;;;;;;;;;;4944657;28;20023;-71
2021/12/14 14:37:17;;;;;;;2.83;2.30;;;;;;;;;;4942742;29;20070;-71
2021/12/14 14:39:48;;;;;;;3.40;2.75;;;;;;;;;;4944083;29;20047;-71
2021/12/14 14:42:24;;;;;;;2.60;2.30;;;;;;;;;;4946107;28;20069;-71
2021/12/14 14:44:52;;;;;;;5.35;2.20;;;;;;;;;;4958726;28;20028;-71
2021/12/14 14:47:28;;;;;;;2.38;2.10;;;;;;;;;;4945809;28;21055;-71
2021/12/14 14:50:10;;;;;;;3.05;2.38;;;;;;;;;;4945569;28;20032;-71
2021/12/14 14:52:38;;;;;;;2.30;2.10;;;;;;;;;;4959664;28;20024;-71
2021/12/14 14:55:08;;;;;;;2.85;2.22;;;;;;;;;;4945994;28;20486;-71
2021/12/14 14:57:35;;;;;;;2.42;2.22;;;;;;;;;;4945026;28;20118;-71
2021/12/14 15:00:03;;;;;;;6.30;2.40;;;;;;;;;;4945481;29;20058;-71
2021/12/14 15:02:34;;;;;;;3.88;2.70;;;;;;;;;;4943620;28;20402;-71
2021/12/14 15:05:04;;;;;;;4.90;2.95;;;;;;;;;;4944904;28;20070;-71
2021/12/14 15:08:08;;;;;;;2.80;2.60;;;;;;;;;;4948858;28;20031;-71
2021/12/14 15:10:41;;;;;;;3.17;2.75;;;;;;;;;;4944608;28;20384;-71
2021/12/14 15:13:17;;;;;;;4.68;3.25;;;;;;;;;;4944397;29;20031;-70
2021/12/14 15:16:04;;;;;;;4.28;3.30;;;;;;;;;;4942753;28;20028;-71
2021/12/14 15:18:49;;;;;;;5.30;2.90;;;;;;;;;;4944417;28;20604;-71
2021/12/14 15:21:31;;;;;;;3.47;2.80;;;;;;;;;;4947679;29;20020;-71
2021/12/14 15:24:17;;;;;;;5.30;2.90;;;;;;;;;;4944864;28;20797;-71
2021/12/14 15:26:47;;;;;;;4.63;3.28;;;;;;;;;;4956915;28;20027;-71
2021/12/14 15:29:25;;;;;;;6.15;3.20;;;;;;;;;;4932377;29;20039;-71
2021/12/14 15:32:13;;;;;;;4.45;3.33;;;;;;;;;;4942484;28;20056;-71
2021/12/14 15:35:02;;;;;;;3.97;3.30;;;;;;;;;;4944508;28;20516;-71